sensor_id;sensor_type;location;lat;lon;timestamp;temperature;humidity
75769;DHT22;64379;48.888;8.330;2023-03-14T00:00:34;12.50;64.70
75769;DHT22;64379;48.888;8.330;2023-03-14T00:02:59;12.50;64.50
75769;DHT22;64379;48.888;8.330;2023-03-14T00:05:25;12.50;64.80
75769;DHT22;64379;48.888;8.330;2023-03-14T00:07:51;12.50;65.40
75769;DHT22;64379;48.888;8.330;2023-03-14T00:10:17;12.40;65.90
75769;DHT22;64379;48.888;8.330;2023-03-14T00:12:43;12.40;65.60
75769;DHT22;64379;48.888;8.330;2023-03-14T00:15:09;12.40;65.20
75769;DHT22;64379;48.888;8.330;2023-03-14T00:17:35;12.50;64.50
75769;DHT22;64379;48.888;8.330;2023-03-14T00:20:02;12.50;65.10
75769;DHT22;64379;48.888;8.330;2023-03-14T00:22:37;12.50;64.80
75769;DHT22;64379;48.888;8.330;2023-03-14T00:25:04;12.50;64.60
75769;DHT22;64379;48.888;8.330;2023-03-14T00:27:30;12.50;64.50
75769;DHT22;64379;48.888;8.330;2023-03-14T00:29:55;12.50;64.60
75769;DHT22;64379;48.888;8.330;2023-03-14T00:32:21;12.50;65.00
75769;DHT22;64379;48.888;8.330;2023-03-14T00:34:47;12.50;64.20
75769;DHT22;64379;48.888;8.330;2023-03-14T00:37:12;12.50;64.10
75769;DHT22;64379;48.888;8.330;2023-03-14T00:39:38;12.50;64.20
75769;DHT22;64379;48.888;8.330;2023-03-14T00:42:03;12.50;64.20
75769;DHT22;64379;48.888;8.330;2023-03-14T00:44:29;12.50;64.50
75769;DHT22;64379;48.888;8.330;2023-03-14T00:46:55;12.50;64.60
75769;DHT22;64379;48.888;8.330;2023-03-14T00:49:20;12.50;65.30
75769;DHT22;64379;48.888;8.330;2023-03-14T00:51:46;12.50;65.50
75769;DHT22;64379;48.888;8.330;2023-03-14T00:54:11;12.50;65.60
75769;DHT22;64379;48.888;8.330;2023-03-14T00:56:37;12.50;66.00
75769;DHT22;64379;48.888;8.330;2023-03-14T00:59:03;12.40;66.70
75769;DHT22;64379;48.888;8.330;2023-03-14T01:01:28;12.30;67.30
75769;DHT22;64379;48.888;8.330;2023-03-14T01:03:55;12.20;67.50
75769;DHT22;64379;48.888;8.330;2023-03-14T01:06:24;12.20;67.60
75769;DHT22;64379;48.888;8.330;2023-03-14T01:08:51;12.10;68.00
75769;DHT22;64379;48.888;8.330;2023-03-14T01:11:22;12.10;68.10
75769;DHT22;64379;48.888;8.330;2023-03-14T01:13:49;12.00;68.30
75769;DHT22;64379;48.888;8.330;2023-03-14T01:16:15;12.00;68.60
75769;DHT22;64379;48.888;8.330;2023-03-14T01:18:43;12.00;68.60
75769;DHT22;64379;48.888;8.330;2023-03-14T01:23:45;11.90;69.20
75769;DHT22;64379;48.888;8.330;2023-03-14T01:26:13;11.90;69.20
75769;DHT22;64379;48.888;8.330;2023-03-14T01:28:39;11.80;69.20
75769;DHT22;64379;48.888;8.330;2023-03-14T01:31:07;11.90;69.30
75769;DHT22;64379;48.888;8.330;2023-03-14T01:33:33;11.80;69.60
75769;DHT22;64379;48.888;8.330;2023-03-14T01:35:58;11.70;69.70
75769;DHT22;64379;48.888;8.330;2023-03-14T01:38:24;11.70;69.70
75769;DHT22;64379;48.888;8.330;2023-03-14T01:40:50;11.70;68.80
75769;DHT22;64379;48.888;8.330;2023-03-14T01:43:18;11.80;68.60
75769;DHT22;64379;48.888;8.330;2023-03-14T01:46:19;11.80;68.70
75769;DHT22;64379;48.888;8.330;2023-03-14T01:51:22;11.60;69.40
75769;DHT22;64379;48.888;8.330;2023-03-14T01:53:51;11.60;69.40
75769;DHT22;64379;48.888;8.330;2023-03-14T01:56:18;11.60;69.40
75769;DHT22;64379;48.888;8.330;2023-03-14T01:58:47;11.60;69.30
75769;DHT22;64379;48.888;8.330;2023-03-14T02:01:16;11.60;69.00
75769;DHT22;64379;48.888;8.330;2023-03-14T02:04:04;11.70;67.80
75769;DHT22;64379;48.888;8.330;2023-03-14T02:06:49;11.70;67.80
75769;DHT22;64379;48.888;8.330;2023-03-14T02:09:16;11.70;67.90
75769;DHT22;64379;48.888;8.330;2023-03-14T02:11:42;11.70;68.00
75769;DHT22;64379;48.888;8.330;2023-03-14T02:14:12;11.60;68.20
75769;DHT22;64379;48.888;8.330;2023-03-14T02:16:39;11.70;67.90
75769;DHT22;64379;48.888;8.330;2023-03-14T02:19:06;11.70;67.80
75769;DHT22;64379;48.888;8.330;2023-03-14T02:22:08;11.70;67.60
75769;DHT22;64379;48.888;8.330;2023-03-14T02:24:38;11.70;67.90
75769;DHT22;64379;48.888;8.330;2023-03-14T02:27:14;11.70;67.60
75769;DHT22;64379;48.888;8.330;2023-03-14T02:29:51;11.60;68.00
75769;DHT22;64379;48.888;8.330;2023-03-14T02:32:19;11.50;67.80
75769;DHT22;64379;48.888;8.330;2023-03-14T02:34:48;11.50;68.20
75769;DHT22;64379;48.888;8.330;2023-03-14T02:37:16;11.50;68.30
75769;DHT22;64379;48.888;8.330;2023-03-14T02:39:44;11.50;67.70
75769;DHT22;64379;48.888;8.330;2023-03-14T02:42:11;11.50;68.00
75769;DHT22;64379;48.888;8.330;2023-03-14T02:44:55;11.50;68.10
75769;DHT22;64379;48.888;8.330;2023-03-14T02:47:29;11.30;68.30
75769;DHT22;64379;48.888;8.330;2023-03-14T02:50:06;11.30;68.00
75769;DHT22;64379;48.888;8.330;2023-03-14T02:52:33;11.40;67.30
75769;DHT22;64379;48.888;8.330;2023-03-14T02:54:59;11.40;67.50
75769;DHT22;64379;48.888;8.330;2023-03-14T02:57:25;11.40;67.50
75769;DHT22;64379;48.888;8.330;2023-03-14T02:59:50;11.30;67.60
75769;DHT22;64379;48.888;8.330;2023-03-14T03:02:16;11.30;67.40
75769;DHT22;64379;48.888;8.330;2023-03-14T03:04:42;11.30;67.30
75769;DHT22;64379;48.888;8.330;2023-03-14T03:07:07;11.30;67.20
75769;DHT22;64379;48.888;8.330;2023-03-14T03:09:33;11.20;67.30
75769;DHT22;64379;48.888;8.330;2023-03-14T03:11:59;11.20;67.20
75769;DHT22;64379;48.888;8.330;2023-03-14T03:14:24;11.20;67.30
75769;DHT22;64379;48.888;8.330;2023-03-14T03:16:50;11.20;67.10
75769;DHT22;64379;48.888;8.330;2023-03-14T03:19:16;11.20;67.00
75769;DHT22;64379;48.888;8.330;2023-03-14T03:21:43;11.10;67.20
75769;DHT22;64379;48.888;8.330;2023-03-14T03:24:09;11.10;67.20
75769;DHT22;64379;48.888;8.330;2023-03-14T03:26:35;11.10;67.00
75769;DHT22;64379;48.888;8.330;2023-03-14T03:29:01;11.30;66.30
75769;DHT22;64379;48.888;8.330;2023-03-14T03:31:27;11.30;66.10
75769;DHT22;64379;48.888;8.330;2023-03-14T03:33:52;11.30;65.20
75769;DHT22;64379;48.888;8.330;2023-03-14T03:36:23;11.30;65.20
75769;DHT22;64379;48.888;8.330;2023-03-14T03:38:49;11.30;64.80
75769;DHT22;64379;48.888;8.330;2023-03-14T03:41:14;11.40;64.60
75769;DHT22;64379;48.888;8.330;2023-03-14T03:43:40;11.30;64.50
75769;DHT22;64379;48.888;8.330;2023-03-14T03:46:06;11.40;63.70
75769;DHT22;64379;48.888;8.330;2023-03-14T03:48:33;11.50;63.10
75769;DHT22;64379;48.888;8.330;2023-03-14T03:50:59;11.50;63.00
75769;DHT22;64379;48.888;8.330;2023-03-14T03:53:25;11.40;63.20
75769;DHT22;64379;48.888;8.330;2023-03-14T03:55:50;11.40;62.70
75769;DHT22;64379;48.888;8.330;2023-03-14T03:58:16;11.40;63.10
75769;DHT22;64379;48.888;8.330;2023-03-14T04:00:41;11.40;62.40
75769;DHT22;64379;48.888;8.330;2023-03-14T04:03:07;11.50;61.70
75769;DHT22;64379;48.888;8.330;2023-03-14T04:05:32;11.50;61.20
75769;DHT22;64379;48.888;8.330;2023-03-14T04:08:00;11.50;61.30
75769;DHT22;64379;48.888;8.330;2023-03-14T04:10:25;11.50;61.50
75769;DHT22;64379;48.888;8.330;2023-03-14T04:12:51;11.40;62.00
75769;DHT22;64379;48.888;8.330;2023-03-14T04:15:17;11.30;62.30
75769;DHT22;64379;48.888;8.330;2023-03-14T04:17:43;11.20;62.40
75769;DHT22;64379;48.888;8.330;2023-03-14T04:20:09;11.20;62.80
75769;DHT22;64379;48.888;8.330;2023-03-14T04:22:38;11.10;63.00
75769;DHT22;64379;48.888;8.330;2023-03-14T04:25:05;11.10;63.10
75769;DHT22;64379;48.888;8.330;2023-03-14T04:27:31;11.10;62.90
75769;DHT22;64379;48.888;8.330;2023-03-14T04:29:57;11.10;62.60
75769;DHT22;64379;48.888;8.330;2023-03-14T04:32:22;11.10;62.40
75769;DHT22;64379;48.888;8.330;2023-03-14T04:34:48;11.10;62.50
75769;DHT22;64379;48.888;8.330;2023-03-14T04:37:13;11.10;62.70
75769;DHT22;64379;48.888;8.330;2023-03-14T04:39:39;11.10;62.30
75769;DHT22;64379;48.888;8.330;2023-03-14T04:42:05;11.20;62.60
75769;DHT22;64379;48.888;8.330;2023-03-14T04:44:31;11.20;62.50
75769;DHT22;64379;48.888;8.330;2023-03-14T04:46:56;11.20;62.70
75769;DHT22;64379;48.888;8.330;2023-03-14T04:49:22;11.20;62.50
75769;DHT22;64379;48.888;8.330;2023-03-14T04:51:48;11.20;62.50
75769;DHT22;64379;48.888;8.330;2023-03-14T04:54:16;11.30;62.70
75769;DHT22;64379;48.888;8.330;2023-03-14T04:56:41;11.30;62.40
75769;DHT22;64379;48.888;8.330;2023-03-14T04:59:07;11.30;62.10
75769;DHT22;64379;48.888;8.330;2023-03-14T05:01:33;11.40;62.20
75769;DHT22;64379;48.888;8.330;2023-03-14T05:03:59;11.30;62.40
75769;DHT22;64379;48.888;8.330;2023-03-14T05:06:25;11.30;62.60
75769;DHT22;64379;48.888;8.330;2023-03-14T05:08:50;11.30;62.90
75769;DHT22;64379;48.888;8.330;2023-03-14T05:11:16;11.30;63.10
75769;DHT22;64379;48.888;8.330;2023-03-14T05:13:42;11.30;62.70
75769;DHT22;64379;48.888;8.330;2023-03-14T05:16:09;11.30;63.00
75769;DHT22;64379;48.888;8.330;2023-03-14T05:18:35;11.30;62.70
75769;DHT22;64379;48.888;8.330;2023-03-14T05:21:01;11.40;62.70
75769;DHT22;64379;48.888;8.330;2023-03-14T05:23:27;11.30;62.80
75769;DHT22;64379;48.888;8.330;2023-03-14T05:25:53;11.30;62.70
75769;DHT22;64379;48.888;8.330;2023-03-14T05:28:19;11.30;62.80
75769;DHT22;64379;48.888;8.330;2023-03-14T05:30:44;11.30;63.00
75769;DHT22;64379;48.888;8.330;2023-03-14T05:33:10;11.30;62.70
75769;DHT22;64379;48.888;8.330;2023-03-14T05:35:35;11.30;62.90
75769;DHT22;64379;48.888;8.330;2023-03-14T05:38:01;11.20;63.00
75769;DHT22;64379;48.888;8.330;2023-03-14T05:40:27;11.10;63.30
75769;DHT22;64379;48.888;8.330;2023-03-14T05:42:52;11.20;63.00
75769;DHT22;64379;48.888;8.330;2023-03-14T05:45:18;11.10;63.20
75769;DHT22;64379;48.888;8.330;2023-03-14T05:47:43;11.10;63.40
75769;DHT22;64379;48.888;8.330;2023-03-14T05:50:10;11.10;63.30
75769;DHT22;64379;48.888;8.330;2023-03-14T05:52:36;11.00;63.50
75769;DHT22;64379;48.888;8.330;2023-03-14T05:55:01;11.00;63.70
75769;DHT22;64379;48.888;8.330;2023-03-14T05:57:27;11.00;63.50
75769;DHT22;64379;48.888;8.330;2023-03-14T05:59:53;10.90;63.70
75769;DHT22;64379;48.888;8.330;2023-03-14T06:02:18;11.00;63.30
75769;DHT22;64379;48.888;8.330;2023-03-14T06:04:44;11.00;63.30
75769;DHT22;64379;48.888;8.330;2023-03-14T06:07:09;11.00;63.30
75769;DHT22;64379;48.888;8.330;2023-03-14T06:09:35;11.00;63.30
75769;DHT22;64379;48.888;8.330;2023-03-14T06:12:00;10.90;63.30
75769;DHT22;64379;48.888;8.330;2023-03-14T06:14:26;10.90;63.50
75769;DHT22;64379;48.888;8.330;2023-03-14T06:16:52;10.80;63.60
75769;DHT22;64379;48.888;8.330;2023-03-14T06:19:18;10.90;63.00
75769;DHT22;64379;48.888;8.330;2023-03-14T06:21:44;10.90;63.00
75769;DHT22;64379;48.888;8.330;2023-03-14T06:24:09;10.90;62.90
75769;DHT22;64379;48.888;8.330;2023-03-14T06:26:35;10.90;63.00
75769;DHT22;64379;48.888;8.330;2023-03-14T06:29:01;11.00;62.50
75769;DHT22;64379;48.888;8.330;2023-03-14T06:31:32;11.10;62.50
75769;DHT22;64379;48.888;8.330;2023-03-14T06:33:58;11.20;62.50
75769;DHT22;64379;48.888;8.330;2023-03-14T06:36:23;11.30;62.20
75769;DHT22;64379;48.888;8.330;2023-03-14T06:38:49;11.30;62.10
75769;DHT22;64379;48.888;8.330;2023-03-14T06:41:14;11.30;62.00
75769;DHT22;64379;48.888;8.330;2023-03-14T06:43:40;11.30;62.30
75769;DHT22;64379;48.888;8.330;2023-03-14T06:46:06;11.30;62.50
75769;DHT22;64379;48.888;8.330;2023-03-14T06:48:31;11.30;62.60
75769;DHT22;64379;48.888;8.330;2023-03-14T06:50:57;11.40;62.40
75769;DHT22;64379;48.888;8.330;2023-03-14T06:53:23;11.40;62.80
75769;DHT22;64379;48.888;8.330;2023-03-14T06:55:48;11.30;62.90
75769;DHT22;64379;48.888;8.330;2023-03-14T06:58:14;11.40;62.90
75769;DHT22;64379;48.888;8.330;2023-03-14T07:00:40;11.40;62.90
75769;DHT22;64379;48.888;8.330;2023-03-14T07:03:05;11.40;62.90
75769;DHT22;64379;48.888;8.330;2023-03-14T07:05:31;11.40;63.00
75769;DHT22;64379;48.888;8.330;2023-03-14T07:07:57;11.40;63.10
75769;DHT22;64379;48.888;8.330;2023-03-14T07:10:22;11.50;62.90
75769;DHT22;64379;48.888;8.330;2023-03-14T07:12:48;11.50;62.70
75769;DHT22;64379;48.888;8.330;2023-03-14T07:15:14;11.50;62.50
75769;DHT22;64379;48.888;8.330;2023-03-14T07:17:40;11.70;62.00
75769;DHT22;64379;48.888;8.330;2023-03-14T07:20:06;11.90;61.10
75769;DHT22;64379;48.888;8.330;2023-03-14T07:22:32;11.90;61.80
75769;DHT22;64379;48.888;8.330;2023-03-14T07:24:58;11.90;61.70
75769;DHT22;64379;48.888;8.330;2023-03-14T07:27:24;11.90;61.70
75769;DHT22;64379;48.888;8.330;2023-03-14T07:29:49;11.70;61.80
75769;DHT22;64379;48.888;8.330;2023-03-14T07:32:15;11.80;61.90
75769;DHT22;64379;48.888;8.330;2023-03-14T07:34:41;11.90;61.40
75769;DHT22;64379;48.888;8.330;2023-03-14T07:37:07;11.90;61.40
75769;DHT22;64379;48.888;8.330;2023-03-14T07:39:33;12.00;61.20
75769;DHT22;64379;48.888;8.330;2023-03-14T07:41:59;12.00;60.90
75769;DHT22;64379;48.888;8.330;2023-03-14T07:44:25;12.10;60.80
75769;DHT22;64379;48.888;8.330;2023-03-14T07:46:51;12.10;60.90
75769;DHT22;64379;48.888;8.330;2023-03-14T07:49:16;12.10;61.20
75769;DHT22;64379;48.888;8.330;2023-03-14T07:51:42;12.10;61.20
75769;DHT22;64379;48.888;8.330;2023-03-14T07:54:09;12.00;61.90
75769;DHT22;64379;48.888;8.330;2023-03-14T07:56:35;11.90;61.90
75769;DHT22;64379;48.888;8.330;2023-03-14T07:59:01;11.90;61.60
75769;DHT22;64379;48.888;8.330;2023-03-14T08:01:27;12.00;61.70
75769;DHT22;64379;48.888;8.330;2023-03-14T08:03:52;12.00;61.90
75769;DHT22;64379;48.888;8.330;2023-03-14T08:06:18;12.00;61.50
75769;DHT22;64379;48.888;8.330;2023-03-14T08:08:43;12.10;61.40
75769;DHT22;64379;48.888;8.330;2023-03-14T08:11:09;12.00;61.40
75769;DHT22;64379;48.888;8.330;2023-03-14T08:13:36;12.00;61.50
75769;DHT22;64379;48.888;8.330;2023-03-14T08:16:02;12.10;61.30
75769;DHT22;64379;48.888;8.330;2023-03-14T08:18:28;12.10;61.00
75769;DHT22;64379;48.888;8.330;2023-03-14T08:20:53;12.00;61.40
75769;DHT22;64379;48.888;8.330;2023-03-14T08:23:19;12.00;61.90
75769;DHT22;64379;48.888;8.330;2023-03-14T08:25:44;11.90;62.60
75769;DHT22;64379;48.888;8.330;2023-03-14T08:28:10;11.80;64.00
75769;DHT22;64379;48.888;8.330;2023-03-14T08:30:35;11.50;65.50
75769;DHT22;64379;48.888;8.330;2023-03-14T08:33:01;11.50;64.70
75769;DHT22;64379;48.888;8.330;2023-03-14T08:35:27;11.50;64.80
75769;DHT22;64379;48.888;8.330;2023-03-14T08:37:52;11.60;64.70
75769;DHT22;64379;48.888;8.330;2023-03-14T08:40:18;11.70;63.90
75769;DHT22;64379;48.888;8.330;2023-03-14T08:42:44;11.80;63.40
75769;DHT22;64379;48.888;8.330;2023-03-14T08:45:12;11.80;63.20
75769;DHT22;64379;48.888;8.330;2023-03-14T08:47:39;11.90;63.00
75769;DHT22;64379;48.888;8.330;2023-03-14T08:50:06;11.90;63.40
75769;DHT22;64379;48.888;8.330;2023-03-14T08:52:33;11.90;62.80
75769;DHT22;64379;48.888;8.330;2023-03-14T08:54:59;11.90;62.20
75769;DHT22;64379;48.888;8.330;2023-03-14T08:57:25;11.90;62.40
75769;DHT22;64379;48.888;8.330;2023-03-14T08:59:56;11.90;62.40
75769;DHT22;64379;48.888;8.330;2023-03-14T09:02:23;12.00;62.20
75769;DHT22;64379;48.888;8.330;2023-03-14T09:04:52;12.00;61.60
75769;DHT22;64379;48.888;8.330;2023-03-14T09:07:19;12.00;61.80
75769;DHT22;64379;48.888;8.330;2023-03-14T09:09:45;12.00;61.70
75769;DHT22;64379;48.888;8.330;2023-03-14T09:12:11;12.00;62.20
75769;DHT22;64379;48.888;8.330;2023-03-14T09:14:37;12.20;61.60
75769;DHT22;64379;48.888;8.330;2023-03-14T09:17:03;12.20;61.40
75769;DHT22;64379;48.888;8.330;2023-03-14T09:19:29;12.20;61.40
75769;DHT22;64379;48.888;8.330;2023-03-14T09:21:55;12.30;61.30
75769;DHT22;64379;48.888;8.330;2023-03-14T09:24:21;12.30;61.20
75769;DHT22;64379;48.888;8.330;2023-03-14T09:26:46;12.50;60.70
75769;DHT22;64379;48.888;8.330;2023-03-14T09:29:12;12.50;60.80
75769;DHT22;64379;48.888;8.330;2023-03-14T09:31:38;12.50;60.60
75769;DHT22;64379;48.888;8.330;2023-03-14T09:34:03;12.70;60.70
75769;DHT22;64379;48.888;8.330;2023-03-14T09:36:30;12.70;60.20
75769;DHT22;64379;48.888;8.330;2023-03-14T09:38:56;12.70;60.10
75769;DHT22;64379;48.888;8.330;2023-03-14T09:41:28;12.50;59.90
75769;DHT22;64379;48.888;8.330;2023-03-14T09:46:29;12.30;61.10
75769;DHT22;64379;48.888;8.330;2023-03-14T09:48:56;12.40;62.40
75769;DHT22;64379;48.888;8.330;2023-03-14T09:51:22;11.90;64.90
75769;DHT22;64379;48.888;8.330;2023-03-14T09:53:49;11.70;66.90
75769;DHT22;64379;48.888;8.330;2023-03-14T09:56:26;11.50;68.20
75769;DHT22;64379;48.888;8.330;2023-03-14T09:58:58;11.40;69.20
75769;DHT22;64379;48.888;8.330;2023-03-14T10:01:27;11.30;70.80
75769;DHT22;64379;48.888;8.330;2023-03-14T10:03:59;11.30;70.80
75769;DHT22;64379;48.888;8.330;2023-03-14T10:06:28;11.30;71.40
75769;DHT22;64379;48.888;8.330;2023-03-14T10:08:54;11.30;71.60
75769;DHT22;64379;48.888;8.330;2023-03-14T10:11:22;11.30;71.10
75769;DHT22;64379;48.888;8.330;2023-03-14T10:13:52;11.30;71.20
75769;DHT22;64379;48.888;8.330;2023-03-14T10:16:32;11.20;71.10
75769;DHT22;64379;48.888;8.330;2023-03-14T10:19:04;11.10;71.50
75769;DHT22;64379;48.888;8.330;2023-03-14T10:21:39;11.00;71.50
75769;DHT22;64379;48.888;8.330;2023-03-14T10:24:22;11.10;72.90
75769;DHT22;64379;48.888;8.330;2023-03-14T10:26:58;11.10;72.80
75769;DHT22;64379;48.888;8.330;2023-03-14T10:29:26;11.10;72.80
75769;DHT22;64379;48.888;8.330;2023-03-14T10:32:04;11.10;72.70
75769;DHT22;64379;48.888;8.330;2023-03-14T10:34:32;11.10;72.30
75769;DHT22;64379;48.888;8.330;2023-03-14T10:36:59;11.00;72.10
75769;DHT22;64379;48.888;8.330;2023-03-14T10:39:53;10.90;73.70
75769;DHT22;64379;48.888;8.330;2023-03-14T10:44:55;10.80;74.50
75769;DHT22;64379;48.888;8.330;2023-03-14T10:47:24;10.70;75.10
75769;DHT22;64379;48.888;8.330;2023-03-14T10:49:51;10.60;76.10
75769;DHT22;64379;48.888;8.330;2023-03-14T10:52:28;10.70;76.20
75769;DHT22;64379;48.888;8.330;2023-03-14T10:55:03;10.60;75.70
75769;DHT22;64379;48.888;8.330;2023-03-14T10:57:29;10.60;76.60
75769;DHT22;64379;48.888;8.330;2023-03-14T10:59:56;10.50;77.20
75769;DHT22;64379;48.888;8.330;2023-03-14T11:07:56;10.10;79.20
75769;DHT22;64379;48.888;8.330;2023-03-14T11:10:31;10.00;79.40
75769;DHT22;64379;48.888;8.330;2023-03-14T11:13:28;9.90;80.00
75769;DHT22;64379;48.888;8.330;2023-03-14T11:24:55;9.50;80.80
75769;DHT22;64379;48.888;8.330;2023-03-14T11:30:13;9.50;81.00
75769;DHT22;64379;48.888;8.330;2023-03-14T11:33:14;9.50;81.50
75769;DHT22;64379;48.888;8.330;2023-03-14T11:35:59;9.40;81.60
75769;DHT22;64379;48.888;8.330;2023-03-14T11:38:38;9.40;80.80
75769;DHT22;64379;48.888;8.330;2023-03-14T11:41:12;9.40;81.10
75769;DHT22;64379;48.888;8.330;2023-03-14T11:43:39;9.40;79.40
75769;DHT22;64379;48.888;8.330;2023-03-14T11:46:17;9.40;78.40
75769;DHT22;64379;48.888;8.330;2023-03-14T11:48:45;9.40;75.70
75769;DHT22;64379;48.888;8.330;2023-03-14T11:57:15;9.00;73.70
75769;DHT22;64379;48.888;8.330;2023-03-14T11:59:45;8.80;74.00
75769;DHT22;64379;48.888;8.330;2023-03-14T12:04:56;9.20;70.40
75769;DHT22;64379;48.888;8.330;2023-03-14T12:10:21;10.20;66.20
75769;DHT22;64379;48.888;8.330;2023-03-14T12:12:47;10.70;64.40
75769;DHT22;64379;48.888;8.330;2023-03-14T12:15:21;11.10;63.20
75769;DHT22;64379;48.888;8.330;2023-03-14T12:17:54;11.10;60.60
75769;DHT22;64379;48.888;8.330;2023-03-14T12:20:24;11.10;60.90
75769;DHT22;64379;48.888;8.330;2023-03-14T12:22:51;10.70;59.70
75769;DHT22;64379;48.888;8.330;2023-03-14T12:25:20;10.60;58.80
75769;DHT22;64379;48.888;8.330;2023-03-14T12:27:48;10.90;57.40
75769;DHT22;64379;48.888;8.330;2023-03-14T12:35:53;10.80;55.30
75769;DHT22;64379;48.888;8.330;2023-03-14T12:38:37;10.80;54.60
75769;DHT22;64379;48.888;8.330;2023-03-14T12:41:14;10.90;54.50
75769;DHT22;64379;48.888;8.330;2023-03-14T12:43:40;10.70;54.10
75769;DHT22;64379;48.888;8.330;2023-03-14T12:48:49;10.40;52.30
75769;DHT22;64379;48.888;8.330;2023-03-14T12:51:20;10.30;49.60
75769;DHT22;64379;48.888;8.330;2023-03-14T12:56:28;10.50;50.40
75769;DHT22;64379;48.888;8.330;2023-03-14T12:59:15;10.50;51.10
75769;DHT22;64379;48.888;8.330;2023-03-14T13:06:59;11.20;48.50
75769;DHT22;64379;48.888;8.330;2023-03-14T13:12:11;10.80;47.40
75769;DHT22;64379;48.888;8.330;2023-03-14T13:14:44;10.30;47.80
75769;DHT22;64379;48.888;8.330;2023-03-14T13:17:14;10.40;47.20
75769;DHT22;64379;48.888;8.330;2023-03-14T13:19:41;10.20;46.10
75769;DHT22;64379;48.888;8.330;2023-03-14T13:22:24;10.00;47.70
75769;DHT22;64379;48.888;8.330;2023-03-14T13:25:02;10.00;47.30
75769;DHT22;64379;48.888;8.330;2023-03-14T13:27:30;10.00;47.80
75769;DHT22;64379;48.888;8.330;2023-03-14T13:30:06;10.00;47.50
75769;DHT22;64379;48.888;8.330;2023-03-14T13:32:41;9.90;45.60
75769;DHT22;64379;48.888;8.330;2023-03-14T13:35:28;9.80;45.30
75769;DHT22;64379;48.888;8.330;2023-03-14T13:38:01;9.70;45.90
75769;DHT22;64379;48.888;8.330;2023-03-14T13:40:34;9.80;46.50
75769;DHT22;64379;48.888;8.330;2023-03-14T13:43:10;9.90;45.70
75769;DHT22;64379;48.888;8.330;2023-03-14T13:46:04;9.80;45.30
75769;DHT22;64379;48.888;8.330;2023-03-14T13:48:33;9.70;46.70
75769;DHT22;64379;48.888;8.330;2023-03-14T13:51:05;9.60;46.20
75769;DHT22;64379;48.888;8.330;2023-03-14T13:53:32;9.70;47.50
75769;DHT22;64379;48.888;8.330;2023-03-14T13:56:02;10.00;46.90
75769;DHT22;64379;48.888;8.330;2023-03-14T13:58:30;10.30;46.80
75769;DHT22;64379;48.888;8.330;2023-03-14T14:01:10;10.30;46.10
75769;DHT22;64379;48.888;8.330;2023-03-14T14:03:39;10.10;46.00
75769;DHT22;64379;48.888;8.330;2023-03-14T14:06:10;10.00;46.30
75769;DHT22;64379;48.888;8.330;2023-03-14T14:08:42;10.00;45.90
75769;DHT22;64379;48.888;8.330;2023-03-14T14:11:10;10.10;45.80
75769;DHT22;64379;48.888;8.330;2023-03-14T14:13:39;10.00;46.30
75769;DHT22;64379;48.888;8.330;2023-03-14T14:16:05;10.10;45.80
75769;DHT22;64379;48.888;8.330;2023-03-14T14:18:32;10.10;45.50
75769;DHT22;64379;48.888;8.330;2023-03-14T14:20:59;10.00;45.80
75769;DHT22;64379;48.888;8.330;2023-03-14T14:23:26;10.10;45.60
75769;DHT22;64379;48.888;8.330;2023-03-14T14:25:54;10.10;45.40
75769;DHT22;64379;48.888;8.330;2023-03-14T14:28:34;10.20;45.20
75769;DHT22;64379;48.888;8.330;2023-03-14T14:36:16;10.50;45.50
75769;DHT22;64379;48.888;8.330;2023-03-14T14:38:48;10.40;45.40
75769;DHT22;64379;48.888;8.330;2023-03-14T14:41:13;10.30;44.70
75769;DHT22;64379;48.888;8.330;2023-03-14T14:43:39;10.30;44.50
75769;DHT22;64379;48.888;8.330;2023-03-14T14:46:07;10.30;45.50
75769;DHT22;64379;48.888;8.330;2023-03-14T14:48:37;10.30;45.10
75769;DHT22;64379;48.888;8.330;2023-03-14T14:51:05;10.60;45.50
75769;DHT22;64379;48.888;8.330;2023-03-14T14:53:37;10.90;45.00
75769;DHT22;64379;48.888;8.330;2023-03-14T14:56:18;10.90;45.90
75769;DHT22;64379;48.888;8.330;2023-03-14T14:58:48;10.90;45.40
75769;DHT22;64379;48.888;8.330;2023-03-14T15:03:42;10.60;46.60
75769;DHT22;64379;48.888;8.330;2023-03-14T15:06:10;10.50;47.10
75769;DHT22;64379;48.888;8.330;2023-03-14T15:08:37;10.60;47.30
75769;DHT22;64379;48.888;8.330;2023-03-14T15:11:03;10.50;47.40
75769;DHT22;64379;48.888;8.330;2023-03-14T15:13:28;10.40;47.10
75769;DHT22;64379;48.888;8.330;2023-03-14T15:15:54;10.30;47.50
75769;DHT22;64379;48.888;8.330;2023-03-14T15:18:28;10.20;47.30
75769;DHT22;64379;48.888;8.330;2023-03-14T15:20:55;10.20;48.60
75769;DHT22;64379;48.888;8.330;2023-03-14T15:23:22;10.50;47.90
75769;DHT22;64379;48.888;8.330;2023-03-14T15:25:48;10.80;46.90
75769;DHT22;64379;48.888;8.330;2023-03-14T15:28:16;11.20;48.10
75769;DHT22;64379;48.888;8.330;2023-03-14T15:30:43;11.10;47.30
75769;DHT22;64379;48.888;8.330;2023-03-14T15:33:09;10.90;48.00
75769;DHT22;64379;48.888;8.330;2023-03-14T15:35:38;10.70;48.20
75769;DHT22;64379;48.888;8.330;2023-03-14T15:38:04;10.50;49.00
75769;DHT22;64379;48.888;8.330;2023-03-14T15:40:30;10.40;49.50
75769;DHT22;64379;48.888;8.330;2023-03-14T15:42:56;10.20;49.20
75769;DHT22;64379;48.888;8.330;2023-03-14T15:45:21;10.20;50.20
75769;DHT22;64379;48.888;8.330;2023-03-14T15:47:47;10.10;50.20
75769;DHT22;64379;48.888;8.330;2023-03-14T15:50:12;10.00;50.00
75769;DHT22;64379;48.888;8.330;2023-03-14T15:52:38;10.00;50.70
75769;DHT22;64379;48.888;8.330;2023-03-14T15:55:04;9.90;50.70
75769;DHT22;64379;48.888;8.330;2023-03-14T15:57:29;9.80;50.50
75769;DHT22;64379;48.888;8.330;2023-03-14T15:59:55;9.80;51.10
75769;DHT22;64379;48.888;8.330;2023-03-14T16:02:21;9.70;51.20
75769;DHT22;64379;48.888;8.330;2023-03-14T16:04:46;9.70;51.60
75769;DHT22;64379;48.888;8.330;2023-03-14T16:07:12;9.70;51.70
75769;DHT22;64379;48.888;8.330;2023-03-14T16:09:38;9.60;52.20
75769;DHT22;64379;48.888;8.330;2023-03-14T16:12:03;9.50;53.40
75769;DHT22;64379;48.888;8.330;2023-03-14T16:14:34;9.20;56.00
75769;DHT22;64379;48.888;8.330;2023-03-14T16:16:59;8.50;62.00
75769;DHT22;64379;48.888;8.330;2023-03-14T16:19:25;8.10;64.00
75769;DHT22;64379;48.888;8.330;2023-03-14T16:21:52;7.80;65.40
75769;DHT22;64379;48.888;8.330;2023-03-14T16:24:18;7.60;66.80
75769;DHT22;64379;48.888;8.330;2023-03-14T16:26:44;7.50;67.40
75769;DHT22;64379;48.888;8.330;2023-03-14T16:29:10;7.50;67.50
75769;DHT22;64379;48.888;8.330;2023-03-14T16:31:36;7.40;65.90
75769;DHT22;64379;48.888;8.330;2023-03-14T16:34:08;7.20;65.60
75769;DHT22;64379;48.888;8.330;2023-03-14T16:36:33;6.90;67.60
75769;DHT22;64379;48.888;8.330;2023-03-14T16:38:59;6.70;69.40
75769;DHT22;64379;48.888;8.330;2023-03-14T16:41:25;6.60;71.30
75769;DHT22;64379;48.888;8.330;2023-03-14T16:43:58;6.50;71.80